Time;durP1;ratioP1;P1;durP2;ratioP2;P2;SDS_P1;SDS_P2;PMS_P1;PMS_P2;Temp;Humidity;BMP_temperature;BMP_pressure;BME280_temperature;BME280_humidity;BME280_pressure;Samples;Min_cycle;Max_cycle;Signal;HPM_P1;HPM_P2
2023/03/05 00:01:41;;;;;;;5.00;1.17;;;2.70;92.00;;;;;;5051579;28;20025;-47
2023/03/05 00:04:26;;;;;;;8.18;1.20;;;2.70;92.00;;;;;;5050717;28;20053;-48
2023/03/05 00:06:54;;;;;;;7.78;1.40;;;2.70;92.00;;;;;;5048628;28;20056;-56
2023/03/05 00:09:25;;;;;;;8.00;1.30;;;2.80;92.10;;;;;;5051041;28;20025;-58
2023/03/05 00:11:52;;;;;;;9.60;3.15;;;2.80;92.10;;;;;;5033767;28;20022;-53
2023/03/05 00:14:22;;;;;;;7.53;1.17;;;2.80;92.30;;;;;;5033849;28;20021;-54
2023/03/05 00:16:49;;;;;;;3.50;0.90;;;2.80;92.40;;;;;;5049238;28;20032;-49
2023/03/05 00:19:14;;;;;;;3.28;0.90;;;2.80;92.20;;;;;;5052989;28;20492;-49
2023/03/05 00:21:41;;;;;;;3.25;0.90;;;2.70;92.10;;;;;;5052354;28;20040;-49
2023/03/05 00:24:12;;;;;;;3.25;0.73;;;2.70;92.00;;;;;;5046171;28;20167;-48
2023/03/05 00:26:39;;;;;;;2.78;0.77;;;2.70;92.00;;;;;;5033691;28;20025;-49
2023/03/05 00:29:07;;;;;;;3.72;0.80;;;2.70;91.90;;;;;;5033462;28;20455;-48
2023/03/05 00:31:36;;;;;;;7.68;0.98;;;2.70;91.80;;;;;;5045333;28;20043;-48
2023/03/05 00:34:19;;;;;;;9.45;1.58;;;2.70;91.90;;;;;;5040022;28;20033;-49
2023/03/05 00:36:49;;;;;;;6.07;1.30;;;2.70;92.00;;;;;;5033763;28;20025;-48
2023/03/05 00:39:17;;;;;;;4.75;1.48;;;2.80;92.10;;;;;;5032877;28;20029;-50
2023/03/05 00:41:46;;;;;;;7.25;1.60;;;2.80;92.10;;;;;;5040256;28;20749;-48
2023/03/05 00:44:15;;;;;;;7.30;1.10;;;2.90;92.10;;;;;;5038866;28;20029;-48
2023/03/05 00:46:44;;;;;;;6.47;0.55;;;2.80;91.80;;;;;;5042907;28;20470;-47
2023/03/05 00:49:12;;;;;;;4.05;0.70;;;2.70;91.40;;;;;;5033593;28;20068;-49
2023/03/05 00:51:45;;;;;;;5.68;0.75;;;2.70;91.10;;;;;;5032952;28;20104;-48
2023/03/05 00:54:11;;;;;;;2.90;0.50;;;2.70;90.90;;;;;;5042002;28;20029;-47
2023/03/05 00:56:41;;;;;;;6.32;0.80;;;2.60;90.60;;;;;;5052312;28;20350;-48
2023/03/05 00:59:08;;;;;;;3.55;0.70;;;2.60;90.50;;;;;;5052150;28;20048;-48
2023/03/05 01:01:35;;;;;;;5.25;1.10;;;2.50;90.30;;;;;;5041475;28;20044;-47
2023/03/05 01:04:03;;;;;;;3.58;0.70;;;2.50;90.30;;;;;;5052717;28;20044;-47
2023/03/05 01:06:32;;;;;;;3.50;0.80;;;2.40;90.40;;;;;;5052111;28;20044;-48
2023/03/05 01:08:58;;;;;;;6.70;1.40;;;2.40;90.50;;;;;;5040896;28;20026;-48
2023/03/05 01:11:28;;;;;;;5.45;1.17;;;2.40;90.60;;;;;;5032223;28;20108;-47
2023/03/05 01:13:54;;;;;;;8.43;1.17;;;2.40;90.70;;;;;;5032127;28;20041;-50
2023/03/05 01:16:19;;;;;;;5.35;1.05;;;2.40;90.70;;;;;;5043259;28;20336;-48
2023/03/05 01:18:46;;;;;;;5.00;1.00;;;2.50;90.80;;;;;;5053321;28;20033;-47
2023/03/05 01:21:13;;;;;;;7.22;1.15;;;2.50;90.90;;;;;;5047628;28;20037;-48
2023/03/05 01:23:40;;;;;;;4.93;1.70;;;2.50;90.90;;;;;;5036548;28;20033;-48
2023/03/05 01:26:08;;;;;;;6.78;1.30;;;2.40;90.90;;;;;;5033324;28;20030;-47
2023/03/05 01:28:39;;;;;;;5.32;1.08;;;2.40;90.90;;;;;;5039998;28;20029;-48
2023/03/05 01:31:10;;;;;;;5.78;1.23;;;2.40;91.00;;;;;;5051157;28;20059;-47
2023/03/05 01:33:37;;;;;;;4.18;1.00;;;2.40;90.90;;;;;;5039395;28;20052;-47
2023/03/05 01:36:12;;;;;;;5.88;1.08;;;2.40;91.00;;;;;;5048086;28;20029;-47
2023/03/05 01:38:38;;;;;;;8.35;2.08;;;2.30;91.10;;;;;;5031624;28;20144;-47
2023/03/05 01:41:04;;;;;;;8.05;1.50;;;2.40;91.20;;;;;;5031506;28;20112;-47
2023/03/05 01:43:30;;;;;;;4.85;1.13;;;2.40;91.30;;;;;;5050204;28;20025;-47
2023/03/05 01:46:18;;;;;;;6.38;1.35;;;2.40;91.30;;;;;;5038320;28;20483;-47
2023/03/05 01:49:11;;;;;;;7.05;1.23;;;2.40;91.40;;;;;;5052572;28;20044;-47
2023/03/05 01:51:46;;;;;;;5.20;1.60;;;2.40;91.50;;;;;;5044350;28;20041;-48
2023/03/05 01:54:19;;;;;;;10.05;1.17;;;2.40;91.40;;;;;;5034910;28;20037;-55
2023/03/05 01:56:51;;;;;;;7.72;0.93;;;2.40;91.30;;;;;;5036637;28;20463;-52
2023/03/05 01:59:19;;;;;;;6.05;0.80;;;2.40;91.50;;;;;;5055420;28;20041;-50
2023/03/05 02:01:52;;;;;;;7.97;1.15;;;2.30;91.60;;;;;;5043030;28;20106;-52
2023/03/05 02:04:20;;;;;;;3.95;0.82;;;2.30;91.50;;;;;;5054275;28;20045;-49
2023/03/05 02:06:46;;;;;;;6.35;0.60;;;2.20;91.50;;;;;;5018589;28;20183;-49
2023/03/05 02:09:13;;;;;;;2.47;0.70;;;2.10;91.50;;;;;;5032897;28;20057;-50
2023/03/05 02:11:39;;;;;;;2.38;0.70;;;2.10;91.50;;;;;;5054416;28;20616;-48
2023/03/05 02:14:07;;;;;;;3.78;0.70;;;2.10;91.60;;;;;;5035255;28;20057;-48
2023/03/05 02:16:38;;;;;;;1.63;0.65;;;2.00;91.60;;;;;;5035015;28;20061;-50
2023/03/05 02:19:09;;;;;;;3.53;0.65;;;2.10;91.80;;;;;;5038790;28;20513;-48
2023/03/05 02:21:45;;;;;;;3.88;0.52;;;2.10;91.90;;;;;;5035077;28;20534;-51
2023/03/05 02:24:14;;;;;;;10.60;1.50;;;2.10;92.00;;;;;;5036479;28;20110;-48
2023/03/05 02:26:43;;;;;;;6.82;1.35;;;2.20;92.10;;;;;;5035621;28;20115;-48
2023/03/05 02:29:16;;;;;;;4.03;1.02;;;2.20;92.10;;;;;;5039530;28;20195;-54
2023/03/05 02:31:43;;;;;;;6.68;0.98;;;2.30;92.30;;;;;;5054137;28;20098;-48
2023/03/05 02:34:10;;;;;;;2.80;1.38;;;2.40;92.20;;;;;;5053696;28;20342;-47
2023/03/05 02:36:36;;;;;;;11.38;2.45;;;2.40;92.20;;;;;;5054572;28;20036;-49
2023/03/05 02:39:03;;;;;;;4.20;0.98;;;2.40;92.10;;;;;;5055772;28;20634;-48
2023/03/05 02:41:31;;;;;;;9.27;1.40;;;2.40;92.10;;;;;;5053644;28;20480;-48
2023/03/05 02:43:58;;;;;;;6.88;1.00;;;2.40;92.10;;;;;;5055351;28;20095;-48
2023/03/05 02:46:26;;;;;;;14.20;2.35;;;2.50;92.00;;;;;;5050966;28;20037;-47
2023/03/05 02:48:54;;;;;;;4.47;1.33;;;2.50;91.90;;;;;;5048102;28;20104;-48
2023/03/05 02:51:21;;;;;;;6.43;1.23;;;2.50;91.90;;;;;;5055250;28;20629;-48
2023/03/05 02:53:49;;;;;;;3.60;0.85;;;2.50;91.90;;;;;;5048480;28;20033;-48
2023/03/05 02:56:17;;;;;;;5.43;0.85;;;2.50;91.80;;;;;;5035014;28;20033;-49
2023/03/05 02:58:44;;;;;;;6.68;1.70;;;2.50;91.80;;;;;;5051003;28;20033;-47
2023/03/05 03:01:12;;;;;;;9.02;1.48;;;2.50;91.70;;;;;;5037590;28;20033;-48
2023/03/05 03:03:40;;;;;;;7.90;2.08;;;2.50;91.70;;;;;;5043814;28;20114;-47
2023/03/05 03:06:07;;;;;;;9.45;2.88;;;2.50;91.80;;;;;;5033774;28;20030;-48
2023/03/05 03:08:35;;;;;;;5.80;2.03;;;2.50;91.70;;;;;;5034517;28;20352;-47
2023/03/05 03:11:14;;;;;;;10.93;2.00;;;2.50;91.70;;;;;;5038021;28;20095;-49
2023/03/05 03:13:41;;;;;;;5.35;1.35;;;2.50;91.70;;;;;;5052514;28;20075;-47
2023/03/05 03:16:12;;;;;;;5.32;1.40;;;2.50;91.80;;;;;;5033802;28;20518;-48
2023/03/05 03:18:39;;;;;;;8.93;1.65;;;2.50;91.80;;;;;;5021245;28;20128;-49
2023/03/05 03:21:07;;;;;;;7.05;1.88;;;2.50;91.80;;;;;;5034542;28;20075;-49
2023/03/05 03:23:34;;;;;;;2.30;0.60;;;2.50;91.80;;;;;;5034683;28;20451;-48
2023/03/05 03:26:01;;;;;;;2.33;0.80;;;2.40;92.00;;;;;;5044426;28;20347;-50
2023/03/05 03:28:29;;;;;;;4.95;1.85;;;2.40;92.10;;;;;;5034616;28;20025;-48
2023/03/05 03:30:56;;;;;;;4.53;0.90;;;2.50;92.00;;;;;;5033318;28;20028;-48
2023/03/05 03:33:23;;;;;;;7.78;0.90;;;2.40;91.60;;;;;;5037266;28;20056;-48
2023/03/05 03:35:50;;;;;;;2.67;0.60;;;2.40;91.20;;;;;;5051246;28;20029;-48
2023/03/05 03:38:17;;;;;;;1.45;0.50;;;2.40;91.20;;;;;;5053720;28;20029;-48
2023/03/05 03:40:44;;;;;;;2.08;0.60;;;2.50;91.00;;;;;;5053882;28;20063;-48
2023/03/05 03:43:10;;;;;;;1.83;0.45;;;2.40;90.70;;;;;;5053976;28;20021;-47
2023/03/05 03:45:41;;;;;;;3.00;0.55;;;2.50;90.60;;;;;;5052686;28;20067;-49
2023/03/05 03:48:09;;;;;;;2.40;0.60;;;2.50;90.60;;;;;;5046141;28;20348;-47
2023/03/05 03:50:42;;;;;;;2.00;0.47;;;2.50;90.40;;;;;;5033400;28;20025;-47
2023/03/05 03:53:13;;;;;;;4.80;0.77;;;2.50;90.30;;;;;;5033652;28;20099;-47
2023/03/05 03:55:51;;;;;;;2.92;0.60;;;2.50;90.30;;;;;;5034251;28;20040;-47
2023/03/05 03:58:19;;;;;;;2.22;0.70;;;2.50;90.40;;;;;;5054100;28;20099;-51
2023/03/05 04:00:45;;;;;;;4.22;0.50;;;2.50;90.40;;;;;;5053130;28;20104;-50
2023/03/05 04:03:13;;;;;;;5.82;0.90;;;2.50;90.50;;;;;;5053282;28;20331;-48
2023/03/05 04:05:41;;;;;;;1.40;0.70;;;2.40;90.50;;;;;;5051075;28;20377;-48
2023/03/05 04:08:10;;;;;;;7.32;2.05;;;2.40;90.50;;;;;;5052558;28;20064;-48
2023/03/05 04:10:38;;;;;;;3.70;0.70;;;2.30;90.60;;;;;;5047391;28;20037;-48
2023/03/05 04:13:06;;;;;;;2.60;0.90;;;2.30;90.70;;;;;;5034105;28;20017;-49
2023/03/05 04:15:33;;;;;;;4.75;0.88;;;2.20;90.90;;;;;;5033148;28;20048;-48
2023/03/05 04:18:01;;;;;;;4.70;0.85;;;2.20;91.00;;;;;;5049232;28;20029;-48
2023/03/05 04:20:29;;;;;;;2.58;0.50;;;2.10;91.10;;;;;;5051003;28;20029;-48
2023/03/05 04:22:54;;;;;;;5.95;0.90;;;2.00;91.20;;;;;;5053815;28;20125;-48
2023/03/05 04:25:21;;;;;;;8.27;0.90;;;2.00;91.20;;;;;;5053889;28;20500;-49
2023/03/05 04:27:49;;;;;;;2.25;0.70;;;2.00;91.40;;;;;;5044782;28;20451;-48
2023/03/05 04:30:16;;;;;;;3.17;0.90;;;2.00;91.50;;;;;;5052415;28;20036;-49
2023/03/05 04:32:43;;;;;;;2.53;0.63;;;1.90;91.40;;;;;;5046779;28;20354;-51
2023/03/05 04:35:09;;;;;;;3.17;0.75;;;1.90;91.60;;;;;;5053533;28;20049;-48
2023/03/05 04:37:39;;;;;;;4.07;0.60;;;1.80;91.70;;;;;;5052741;28;20036;-48
2023/03/05 04:40:05;;;;;;;1.95;0.60;;;1.80;91.70;;;;;;5041307;28;20048;-48
2023/03/05 04:42:33;;;;;;;6.95;1.08;;;1.80;91.70;;;;;;5032019;28;20052;-48
2023/03/05 04:44:59;;;;;;;5.07;1.10;;;1.80;91.90;;;;;;5046424;28;20032;-47
2023/03/05 04:47:27;;;;;;;2.22;0.90;;;1.80;91.80;;;;;;5050666;28;20089;-48
2023/03/05 04:49:54;;;;;;;4.78;1.20;;;1.80;91.60;;;;;;5053093;28;20021;-48
2023/03/05 04:52:19;;;;;;;4.07;1.10;;;1.80;91.70;;;;;;5047966;28;20339;-48
2023/03/05 04:54:48;;;;;;;3.92;0.93;;;1.70;91.50;;;;;;5033471;28;20044;-49
2023/03/05 04:57:15;;;;;;;5.05;1.23;;;1.80;91.60;;;;;;5033128;28;20459;-47
2023/03/05 04:59:40;;;;;;;4.40;1.50;;;1.70;91.50;;;;;;5052096;28;20040;-51
2023/03/05 05:02:07;;;;;;;2.65;1.30;;;1.70;91.40;;;;;;5040159;28;20025;-49
2023/03/05 05:04:34;;;;;;;7.30;1.05;;;1.60;91.30;;;;;;5051261;28;20076;-46
2023/03/05 05:07:03;;;;;;;9.25;1.60;;;1.60;91.20;;;;;;5052942;28;20040;-46
2023/03/05 05:09:30;;;;;;;3.80;1.30;;;1.50;91.20;;;;;;5046409;28;20024;-46
2023/03/05 05:11:58;;;;;;;4.72;1.45;;;1.50;91.20;;;;;;5039607;28;20104;-46
2023/03/05 05:14:24;;;;;;;7.53;1.15;;;1.50;91.40;;;;;;5051610;28;20041;-45
2023/03/05 05:16:50;;;;;;;5.32;1.00;;;1.50;91.60;;;;;;5048063;28;20367;-46
2023/03/05 05:19:16;;;;;;;7.25;1.25;;;1.50;91.70;;;;;;5052003;28;20036;-46
2023/03/05 05:21:44;;;;;;;7.55;1.20;;;1.60;91.80;;;;;;5052731;28;20029;-47
2023/03/05 05:24:11;;;;;;;6.65;1.10;;;1.70;92.20;;;;;;5052294;28;20039;-48
2023/03/05 05:26:38;;;;;;;5.80;1.13;;;1.80;92.30;;;;;;5050687;28;20025;-47
2023/03/05 05:29:04;;;;;;;8.02;1.05;;;1.80;92.30;;;;;;5052861;28;20021;-47
2023/03/05 05:31:32;;;;;;;4.72;1.17;;;1.90;92.40;;;;;;5051156;28;20353;-48
2023/03/05 05:34:00;;;;;;;4.20;1.15;;;1.80;92.30;;;;;;5055220;28;20033;-52
2023/03/05 05:36:27;;;;;;;9.10;1.50;;;1.90;92.40;;;;;;5040722;28;20413;-52
2023/03/05 05:38:55;;;;;;;4.60;0.93;;;1.90;92.50;;;;;;5037556;28;20040;-48
2023/03/05 05:41:23;;;;;;;4.47;2.17;;;1.90;92.30;;;;;;5036681;28;20037;-51
2023/03/05 05:43:51;;;;;;;9.18;0.88;;;1.80;91.90;;;;;;5050601;28;20029;-55
2023/03/05 05:46:20;;;;;;;9.47;1.27;;;1.70;91.80;;;;;;5056106;28;20095;-55
2023/03/05 05:48:47;;;;;;;5.32;0.77;;;1.70;91.70;;;;;;5054203;28;20123;-57
2023/03/05 05:51:18;;;;;;;10.50;1.00;;;1.70;91.70;;;;;;5055671;28;20413;-55
2023/03/05 05:53:47;;;;;;;3.03;0.82;;;1.70;91.80;;;;;;5037127;28;20022;-56
2023/03/05 05:56:15;;;;;;;8.88;1.17;;;1.70;91.80;;;;;;5039181;28;20025;-57
2023/03/05 05:58:48;;;;;;;5.30;1.00;;;1.80;92.10;;;;;;5045037;28;20398;-57
2023/03/05 06:01:28;;;;;;;3.72;0.70;;;1.80;91.90;;;;;;5037023;28;20391;-55
2023/03/05 06:03:59;;;;;;;3.75;0.60;;;1.70;91.50;;;;;;5041753;28;20148;-58
2023/03/05 06:06:27;;;;;;;1.08;0.30;;;1.70;91.10;;;;;;5035397;28;20379;-57
2023/03/05 06:08:58;;;;;;;0.47;0.40;;;1.60;90.50;;;;;;5034650;28;20026;-54
2023/03/05 06:11:29;;;;;;;0.73;0.30;;;1.60;90.20;;;;;;5034673;28;20044;-52
2023/03/05 06:14:01;;;;;;;1.08;0.30;;;1.60;90.10;;;;;;5035686;28;20053;-53
2023/03/05 06:16:31;;;;;;;2.38;0.60;;;1.60;90.10;;;;;;5052347;28;20033;-49
2023/03/05 06:18:58;;;;;;;5.27;0.57;;;1.60;90.30;;;;;;5052573;28;20161;-50
2023/03/05 06:21:25;;;;;;;3.35;0.95;;;1.70;90.60;;;;;;5054460;28;20743;-49
2023/03/05 06:23:52;;;;;;;5.88;1.00;;;1.70;90.50;;;;;;5055440;28;20116;-50
2023/03/05 06:26:21;;;;;;;2.47;0.50;;;1.60;90.60;;;;;;5055320;28;20350;-48
2023/03/05 06:28:48;;;;;;;3.30;0.85;;;1.70;90.70;;;;;;5021402;28;20033;-48
2023/03/05 06:31:24;;;;;;;4.22;0.93;;;1.70;90.80;;;;;;5034800;28;20422;-50
2023/03/05 06:33:54;;;;;;;3.95;0.80;;;1.70;90.90;;;;;;5022250;28;20459;-51
2023/03/05 06:36:21;;;;;;;6.50;1.10;;;1.80;91.10;;;;;;5045612;28;20029;-56
2023/03/05 06:38:52;;;;;;;8.23;0.90;;;1.90;91.10;;;;;;5049709;28;20030;-59
2023/03/05 06:41:25;;;;;;;3.78;1.58;;;2.00;90.80;;;;;;5051415;28;20029;-56
2023/03/05 06:43:54;;;;;;;4.90;0.95;;;1.90;90.90;;;;;;5033820;28;20060;-59
2023/03/05 06:46:21;;;;;;;3.55;0.45;;;1.90;91.20;;;;;;5034720;28;20030;-57
2023/03/05 06:48:51;;;;;;;2.47;0.63;;;1.90;91.50;;;;;;5051309;28;20154;-57
2023/03/05 06:51:37;;;;;;;5.43;1.10;;;1.90;91.70;;;;;;5054640;28;20079;-53
2023/03/05 06:54:18;;;;;;;5.45;2.65;;;1.90;91.90;;;;;;5055753;28;20334;-50
2023/03/05 06:56:49;;;;;;;9.15;2.00;;;2.00;92.10;;;;;;5034818;28;20355;-54
2023/03/05 06:59:16;;;;;;;6.95;1.65;;;2.00;92.10;;;;;;5035792;28;20049;-49
2023/03/05 07:01:44;;;;;;;7.47;1.10;;;2.00;92.20;;;;;;5037224;28;20032;-48
2023/03/05 07:04:11;;;;;;;4.10;0.85;;;2.10;92.20;;;;;;5054005;28;20060;-48
2023/03/05 07:06:38;;;;;;;4.15;1.02;;;2.20;92.30;;;;;;5049392;28;20105;-49
2023/03/05 07:09:07;;;;;;;7.30;0.93;;;2.30;92.40;;;;;;5034371;28;20121;-48
2023/03/05 07:11:33;;;;;;;6.80;1.25;;;2.40;92.40;;;;;;5035165;28;20025;-48
2023/03/05 07:14:00;;;;;;;10.48;1.50;;;2.40;92.20;;;;;;5038906;28;20044;-48
2023/03/05 07:16:31;;;;;;;7.78;1.23;;;2.50;92.20;;;;;;5052838;28;20037;-48
2023/03/05 07:18:58;;;;;;;8.10;1.15;;;2.50;92.00;;;;;;5052941;28;20068;-48
2023/03/05 07:21:29;;;;;;;6.18;1.50;;;2.50;92.00;;;;;;5055136;28;20113;-48
2023/03/05 07:23:57;;;;;;;5.22;3.28;;;2.60;92.00;;;;;;5052196;28;20155;-47
2023/03/05 07:26:25;;;;;;;10.55;4.50;;;2.70;92.00;;;;;;5017540;28;20116;-48
2023/03/05 07:28:53;;;;;;;6.90;1.65;;;2.80;91.80;;;;;;5035463;28;20415;-47
2023/03/05 07:31:25;;;;;;;6.32;2.47;;;2.80;91.50;;;;;;5049959;28;20152;-47
2023/03/05 07:33:52;;;;;;;6.32;1.42;;;2.90;91.30;;;;;;5051935;28;20033;-52
2023/03/05 07:36:19;;;;;;;5.18;1.02;;;2.90;91.00;;;;;;5052390;28;20032;-47
2023/03/05 07:38:46;;;;;;;4.43;1.00;;;2.90;90.60;;;;;;5053823;28;20454;-47
2023/03/05 07:41:18;;;;;;;5.22;0.90;;;2.90;90.40;;;;;;5053403;28;20506;-53
2023/03/05 07:43:48;;;;;;;4.53;0.80;;;2.80;90.20;;;;;;5052107;28;20591;-57
2023/03/05 07:46:18;;;;;;;6.50;2.67;;;2.60;90.00;;;;;;5053398;28;20489;-52
2023/03/05 07:48:45;;;;;;;3.25;1.00;;;2.40;90.30;;;;;;5035096;28;20466;-56
2023/03/05 07:51:16;;;;;;;3.33;1.00;;;2.00;90.60;;;;;;5053749;28;20104;-57
2023/03/05 07:53:44;;;;;;;3.25;0.93;;;1.90;91.20;;;;;;5034119;28;20041;-57
2023/03/05 07:56:10;;;;;;;6.78;1.10;;;1.90;91.60;;;;;;5053781;28;20067;-58
2023/03/05 07:58:39;;;;;;;5.68;0.93;;;1.90;91.90;;;;;;5054144;28;20029;-56
2023/03/05 08:01:15;;;;;;;4.68;1.42;;;1.90;92.20;;;;;;5052092;28;20501;-57
2023/03/05 08:03:41;;;;;;;9.60;1.88;;;2.00;92.50;;;;;;5051988;28;20068;-49
2023/03/05 08:06:09;;;;;;;5.10;0.90;;;2.40;92.80;;;;;;5038546;28;20043;-50
2023/03/05 08:08:35;;;;;;;7.47;1.40;;;2.90;93.00;;;;;;5034295;28;20042;-50
2023/03/05 08:11:09;;;;;;;8.40;1.80;;;3.30;92.70;;;;;;5032892;28;20415;-48
2023/03/05 08:13:37;;;;;;;7.10;1.35;;;3.60;92.30;;;;;;5033077;28;20120;-48
2023/03/05 08:16:08;;;;;;;4.90;0.90;;;3.90;91.90;;;;;;5034817;28;20084;-51
2023/03/05 08:18:35;;;;;;;6.40;0.95;;;3.90;91.00;;;;;;5051160;28;20038;-47
2023/03/05 08:21:06;;;;;;;6.85;1.48;;;3.90;90.50;;;;;;5052765;28;20414;-47
2023/03/05 08:23:33;;;;;;;4.95;1.00;;;4.00;90.60;;;;;;5051865;28;20071;-46
2023/03/05 08:26:11;;;;;;;5.30;1.13;;;4.20;90.50;;;;;;5033925;28;20041;-46
2023/03/05 08:28:39;;;;;;;6.65;1.10;;;4.40;90.70;;;;;;5032441;28;20073;-46
2023/03/05 08:31:17;;;;;;;2.80;0.90;;;4.70;90.60;;;;;;5036698;28;20096;-47
2023/03/05 08:33:44;;;;;;;5.50;1.40;;;4.60;89.60;;;;;;5044433;28;20021;-46
2023/03/05 08:36:12;;;;;;;8.35;1.48;;;4.50;89.60;;;;;;5035470;28;20139;-49
2023/03/05 08:38:38;;;;;;;6.45;1.00;;;4.50;89.90;;;;;;5052633;28;20025;-46
2023/03/05 08:41:05;;;;;;;6.40;1.10;;;4.40;89.80;;;;;;5035464;28;20033;-49
2023/03/05 08:43:32;;;;;;;8.93;1.40;;;4.30;89.90;;;;;;5053567;28;20021;-46
2023/03/05 08:46:03;;;;;;;6.78;2.17;;;4.50;90.40;;;;;;5044127;28;20112;-45
2023/03/05 08:48:30;;;;;;;6.50;2.05;;;4.60;90.20;;;;;;5043675;28;20029;-46
2023/03/05 08:51:03;;;;;;;6.75;1.63;;;4.80;90.20;;;;;;5051477;28;20044;-46
2023/03/05 08:53:29;;;;;;;4.53;0.90;;;4.60;89.40;;;;;;5053614;28;20048;-51
2023/03/05 08:55:57;;;;;;;9.15;2.38;;;4.40;88.60;;;;;;5040581;28;20370;-50
2023/03/05 08:58:24;;;;;;;8.95;1.10;;;4.10;88.80;;;;;;5035916;28;20032;-48
2023/03/05 09:00:50;;;;;;;7.25;0.60;;;3.90;88.80;;;;;;5047911;28;20082;-47
2023/03/05 09:03:16;;;;;;;6.72;1.35;;;4.00;89.50;;;;;;5021145;28;20066;-48
2023/03/05 09:05:44;;;;;;;4.15;0.80;;;4.20;89.70;;;;;;5047838;28;20159;-48
2023/03/05 09:08:13;;;;;;;2.97;0.60;;;4.60;89.90;;;;;;5037543;28;20028;-46
2023/03/05 09:10:41;;;;;;;8.05;2.15;;;4.80;89.30;;;;;;5032221;28;20129;-47
2023/03/05 09:13:09;;;;;;;7.72;1.60;;;5.00;88.40;;;;;;5047220;28;20048;-46
2023/03/05 09:15:37;;;;;;;8.38;1.27;;;5.00;88.20;;;;;;5037081;28;20048;-50
2023/03/05 09:18:07;;;;;;;5.25;0.98;;;5.00;88.20;;;;;;5051518;28;20061;-50
2023/03/05 09:20:38;;;;;;;10.05;1.73;;;4.90;88.30;;;;;;5051419;28;20105;-53
2023/03/05 09:23:03;;;;;;;6.70;0.98;;;4.50;88.10;;;;;;5047034;28;20033;-52
2023/03/05 09:25:31;;;;;;;3.75;0.73;;;4.40;88.70;;;;;;5032441;28;20045;-50
2023/03/05 09:27:58;;;;;;;3.85;1.10;;;4.30;88.90;;;;;;5040772;28;20028;-51
2023/03/05 09:30:25;;;;;;;3.67;0.93;;;4.20;89.20;;;;;;5050475;28;20033;-53
2023/03/05 09:32:51;;;;;;;7.63;2.45;;;4.50;90.00;;;;;;5050652;28;20112;-57
2023/03/05 09:35:16;;;;;;;4.63;1.25;;;4.40;89.50;;;;;;5051366;28;20136;-57
2023/03/05 09:37:44;;;;;;;3.63;1.40;;;4.40;89.50;;;;;;5052759;28;20029;-53
2023/03/05 09:40:18;;;;;;;6.38;1.02;;;4.20;89.10;;;;;;5050960;28;20025;-53
2023/03/05 09:43:18;;;;;;;6.47;1.38;;;4.00;89.70;;;;;;5038666;28;20084;-50
2023/03/05 09:46:05;;;;;;;5.90;1.50;;;4.00;89.80;;;;;;5033972;28;20033;-49
2023/03/05 09:48:53;;;;;;;4.28;1.60;;;4.10;90.00;;;;;;5041838;28;20042;-48
2023/03/05 09:51:33;;;;;;;8.48;2.65;;;4.60;90.70;;;;;;5050025;28;20029;-50
2023/03/05 09:54:09;;;;;;;4.97;1.60;;;4.90;90.30;;;;;;5046946;28;20082;-46
2023/03/05 09:56:45;;;;;;;4.68;1.27;;;5.20;89.80;;;;;;5034859;28;20041;-45
2023/03/05 09:59:42;;;;;;;4.32;1.45;;;5.30;88.50;;;;;;5027785;28;20041;-45
2023/03/05 10:02:38;;;;;;;5.50;1.38;;;5.60;88.70;;;;;;5043329;28;20120;-45
2023/03/05 10:05:25;;;;;;;5.32;1.30;;;5.90;87.90;;;;;;5051428;28;20393;-46
2023/03/05 10:08:10;;;;;;;2.10;0.70;;;6.20;86.80;;;;;;5050539;28;20061;-44
2023/03/05 10:10:56;;;;;;;3.55;1.13;;;6.10;83.80;;;;;;5049974;28;20025;-46
2023/03/05 10:13:26;;;;;;;4.85;1.63;;;6.20;84.00;;;;;;5051444;28;20053;-49
2023/03/05 10:16:37;;;;;;;5.82;1.00;;;6.20;84.10;;;;;;5031643;28;20033;-47
2023/03/05 10:19:40;;;;;;;4.78;1.15;;;6.40;83.80;;;;;;5032261;28;20069;-46
2023/03/05 10:22:28;;;;;;;4.70;1.10;;;6.40;82.90;;;;;;5016849;28;20220;-48
2023/03/05 10:24:56;;;;;;;12.60;2.10;;;6.40;83.80;;;;;;5017223;28;20048;-52
2023/03/05 10:27:48;;;;;;;4.10;0.80;;;6.10;82.70;;;;;;5034178;28;20085;-45
2023/03/05 10:30:29;;;;;;;6.00;1.08;;;5.80;82.40;;;;;;5043987;28;20022;-50
2023/03/05 10:33:32;;;;;;;2.08;0.80;;;5.80;83.50;;;;;;5031497;28;20053;-46
2023/03/05 10:36:25;;;;;;;6.93;2.20;;;6.00;82.30;;;;;;5033177;28;20461;-50
2023/03/05 10:39:18;;;;;;;2.00;0.63;;;6.30;82.20;;;;;;5017472;28;20065;-46
2023/03/05 10:42:04;;;;;;;4.13;0.75;;;6.60;81.80;;;;;;5033982;28;20401;-45
2023/03/05 10:44:45;;;;;;;2.22;0.68;;;6.40;79.80;;;;;;5033424;28;20042;-46
2023/03/05 10:47:38;;;;;;;2.60;0.75;;;5.90;81.50;;;;;;5033165;28;20045;-45
2023/03/05 10:50:26;;;;;;;4.25;0.82;;;5.40;82.50;;;;;;5017106;28;20044;-44
2023/03/05 10:53:32;;;;;;;3.03;1.20;;;5.20;85.10;;;;;;5034066;28;20049;-45
2023/03/05 10:56:07;;;;;;;4.47;1.30;;;5.10;86.80;;;;;;5035590;28;20041;-45
2023/03/05 10:58:34;;;;;;;4.57;1.17;;;5.40;87.50;;;;;;5047472;28;20146;-45
2023/03/05 11:01:11;;;;;;;3.45;0.88;;;5.60;87.40;;;;;;5050824;28;20043;-48
2023/03/05 11:04:04;;;;;;;9.00;1.13;;;5.90;86.80;;;;;;5049389;28;20076;-45
2023/03/05 11:06:40;;;;;;;5.22;0.85;;;6.00;85.80;;;;;;5053782;28;20066;-46
2023/03/05 11:09:37;;;;;;;12.13;1.60;;;6.00;85.10;;;;;;5034372;28;20044;-48
2023/03/05 11:12:19;;;;;;;3.65;1.42;;;5.90;85.00;;;;;;5035154;28;20498;-43
2023/03/05 11:15:12;;;;;;;3.80;0.90;;;5.60;84.60;;;;;;5044423;28;20037;-45
2023/03/05 11:17:53;;;;;;;5.43;1.17;;;5.40;86.00;;;;;;5054829;28;20029;-44
2023/03/05 11:20:38;;;;;;;2.95;0.90;;;5.50;86.00;;;;;;5043672;28;20033;-45
2023/03/05 11:23:07;;;;;;;7.45;0.95;;;5.70;86.60;;;;;;5035163;28;20423;-47
2023/03/05 11:25:56;;;;;;;6.32;2.00;;;5.70;85.60;;;;;;5035096;28;20026;-46
2023/03/05 11:28:43;;;;;;;6.18;1.88;;;5.70;84.80;;;;;;5049924;28;20112;-44
2023/03/05 11:31:15;;;;;;;6.68;1.00;;;5.70;84.30;;;;;;5050559;28;20111;-44
2023/03/05 11:34:07;;;;;;;2.55;0.75;;;5.40;84.40;;;;;;5052693;28;20033;-43
2023/03/05 11:36:39;;;;;;;4.75;0.80;;;5.20;85.60;;;;;;5054328;28;20523;-44
2023/03/05 11:39:15;;;;;;;2.53;1.10;;;5.00;85.60;;;;;;5051693;28;20462;-45
2023/03/05 11:42:23;;;;;;;5.25;1.83;;;5.10;86.90;;;;;;5046032;28;20083;-43
2023/03/05 11:44:59;;;;;;;5.20;0.97;;;5.40;86.70;;;;;;5052758;28;20040;-44
2023/03/05 11:47:31;;;;;;;2.10;0.60;;;5.40;86.60;;;;;;5052952;28;20040;-45
2023/03/05 11:50:12;;;;;;;1.25;0.57;;;5.70;86.40;;;;;;5053112;28;20021;-44
2023/03/05 11:52:58;;;;;;;5.60;0.80;;;5.70;85.20;;;;;;5052544;28;20031;-45
2023/03/05 11:55:33;;;;;;;1.95;0.80;;;5.70;85.20;;;;;;5048603;28;20185;-44
2023/03/05 11:58:27;;;;;;;4.97;0.93;;;5.70;84.80;;;;;;5034070;28;20033;-43
2023/03/05 12:00:55;;;;;;;3.30;1.42;;;5.80;85.30;;;;;;5047408;28;20030;-45
2023/03/05 12:03:35;;;;;;;5.60;0.70;;;5.90;84.70;;;;;;5017839;28;20431;-45
2023/03/05 12:06:43;;;;;;;3.17;0.80;;;6.00;84.60;;;;;;5034265;28;20052;-45
2023/03/05 12:09:24;;;;;;;3.22;0.80;;;6.00;84.10;;;;;;5033187;28;20033;-43
2023/03/05 12:11:57;;;;;;;4.35;1.70;;;6.40;84.80;;;;;;5034007;28;20072;-46
2023/03/05 12:14:38;;;;;;;4.53;1.63;;;6.40;83.60;;;;;;5038901;28;20033;-48
2023/03/05 12:17:22;;;;;;;4.72;1.23;;;6.30;83.30;;;;;;5024549;28;20041;-45
2023/03/05 12:20:12;;;;;;;5.72;1.20;;;6.20;83.20;;;;;;5033976;28;20030;-46
2023/03/05 12:22:41;;;;;;;;;;;6.30;83.80;;;;;;5050749;28;20040;-45
2023/03/05 12:25:25;;;;;;;4.03;1.05;;;6.40;83.80;;;;;;5064922;28;20246;-45
2023/03/05 12:27:53;;;;;;;4.60;1.17;;;6.20;83.50;;;;;;5034050;28;20478;-48
2023/03/05 12:30:37;;;;;;;6.85;1.17;;;6.00;84.40;;;;;;5033732;28;20025;-45
2023/03/05 12:33:06;;;;;;;3.15;0.82;;;5.90;84.60;;;;;;5042181;28;20104;-45
2023/03/05 12:35:35;;;;;;;;;;;5.80;85.00;;;;;;5049839;28;20099;-43
2023/03/05 12:38:27;;;;;;;5.50;1.30;;;5.70;85.40;;;;;;5032927;28;20227;-45
2023/03/05 12:41:33;;;;;;;5.47;1.00;;;5.70;86.20;;;;;;5019178;28;20383;-43
2023/03/05 12:44:08;;;;;;;6.22;1.23;;;5.90;87.20;;;;;;5040155;28;20038;-44
2023/03/05 12:47:08;;;;;;;5.47;1.30;;;5.90;87.00;;;;;;5050565;28;20027;-44
2023/03/05 12:49:39;;;;;;;5.20;0.80;;;6.30;87.90;;;;;;5050564;28;20091;-45
2023/03/05 12:52:21;;;;;;;3.25;0.75;;;6.40;86.10;;;;;;5015706;28;20033;-44
2023/03/05 12:55:27;;;;;;;3.67;1.10;;;6.40;85.60;;;;;;5033298;28;20029;-45
2023/03/05 12:58:18;;;;;;;8.05;1.38;;;6.60;85.90;;;;;;5033334;28;20095;-45
2023/03/05 13:00:48;;;;;;;4.18;1.00;;;6.40;84.70;;;;;;5034059;28;20040;-49
2023/03/05 13:03:22;;;;;;;3.90;1.10;;;6.30;84.70;;;;;;5052319;28;20395;-44
2023/03/05 13:05:52;;;;;;;3.22;0.90;;;6.00;85.10;;;;;;5051852;28;20053;-47
2023/03/05 13:08:25;;;;;;;;;;;5.90;86.30;;;;;;5031862;28;20025;-45
2023/03/05 13:11:05;;;;;;;4.15;1.15;;;5.90;86.40;;;;;;5033222;28;19916;-44
2023/03/05 13:13:37;;;;;;;2.40;0.70;;;5.90;86.90;;;;;;5032331;28;20455;-45
2023/03/05 13:16:15;;;;;;;3.33;1.73;;;6.00;85.80;;;;;;5038479;28;20450;-46
2023/03/05 13:18:47;;;;;;;3.50;1.00;;;5.90;85.10;;;;;;5051579;28;20070;-44
2023/03/05 13:21:32;;;;;;;3.75;1.10;;;6.10;84.80;;;;;;5025173;28;20060;-45
2023/03/05 13:24:01;;;;;;;4.60;1.10;;;6.00;84.50;;;;;;5032962;28;20026;-45
2023/03/05 13:26:39;;;;;;;4.20;0.93;;;5.90;84.20;;;;;;5042844;28;20458;-46